createdAt,value
2023-02-24T00:00:32.477Z,85.21
2023-02-24T00:03:05.989Z,84.55
2023-02-24T00:05:39.246Z,84.70
2023-02-24T00:08:07.356Z,84.35
2023-02-24T00:10:37.784Z,84.33
2023-02-24T00:13:07.516Z,83.94
2023-02-24T00:15:35.264Z,84.95
2023-02-24T00:18:09.119Z,84.32
2023-02-24T00:20:38.131Z,84.24
2023-02-24T00:23:05.865Z,84.59
2023-02-24T00:25:33.566Z,84.75
2023-02-24T00:28:02.160Z,83.79
2023-02-24T00:30:33.627Z,83.90
2023-02-24T00:33:03.451Z,85.09
2023-02-24T00:35:31.418Z,84.89
2023-02-24T00:38:02.956Z,85.47
2023-02-24T00:40:30.847Z,86.58
2023-02-24T00:42:58.970Z,85.29
2023-02-24T00:45:30.681Z,86.39
2023-02-24T00:47:59.611Z,85.31
2023-02-24T00:50:29.672Z,85.07
2023-02-24T00:52:57.269Z,84.99
2023-02-24T00:55:45.558Z,84.49
2023-02-24T00:58:14.768Z,84.21
2023-02-24T01:00:43.583Z,84.20
2023-02-24T01:03:25.152Z,84.25
2023-02-24T01:05:53.472Z,84.60
2023-02-24T01:08:23.066Z,84.21
2023-02-24T01:11:18.965Z,84.09
2023-02-24T01:13:46.924Z,84.92
2023-02-24T01:16:18.841Z,85.06
2023-02-24T01:18:50.987Z,84.44
2023-02-24T01:21:21.351Z,84.15
2023-02-24T01:23:50.132Z,84.02
2023-02-24T01:26:20.946Z,83.91
2023-02-24T01:28:48.474Z,84.80
2023-02-24T01:31:18.337Z,85.17
2023-02-24T01:33:49.941Z,85.01
2023-02-24T01:36:21.054Z,85.17
2023-02-24T01:38:49.561Z,84.87
2023-02-24T01:41:23.750Z,84.54
2023-02-24T01:44:01.960Z,83.35
2023-02-24T01:46:33.345Z,83.77
2023-02-24T01:49:10.455Z,83.38
2023-02-24T01:51:43.144Z,82.90
2023-02-24T01:54:13.696Z,82.69
2023-02-24T01:56:42.145Z,82.71
2023-02-24T01:59:11.463Z,82.97
2023-02-24T02:01:45.193Z,82.65
2023-02-24T02:04:19.931Z,83.43
2023-02-24T02:06:49.988Z,83.58
2023-02-24T02:09:18.172Z,83.62
2023-02-24T02:11:49.130Z,83.43
2023-02-24T02:14:31.757Z,82.86
2023-02-24T02:17:10.938Z,82.96
2023-02-24T02:19:57.495Z,82.32
2023-02-24T02:22:43.017Z,83.00
2023-02-24T02:25:21.299Z,83.70
2023-02-24T02:28:15.673Z,82.70
2023-02-24T02:31:26.000Z,83.05
2023-02-24T02:34:12.150Z,83.14
2023-02-24T02:36:59.238Z,83.02
2023-02-24T02:39:34.618Z,82.66
2023-02-24T02:42:14.233Z,82.31
2023-02-24T02:44:55.904Z,81.77
2023-02-24T02:47:29.647Z,82.14
2023-02-24T02:50:09.056Z,82.07
2023-02-24T02:52:42.991Z,82.13
2023-02-24T02:55:14.625Z,81.99
2023-02-24T02:57:51.804Z,82.66
2023-02-24T03:00:24.163Z,82.42
2023-02-24T03:02:55.825Z,82.84
2023-02-24T03:05:38.070Z,82.69
2023-02-24T03:08:11.392Z,82.73
2023-02-24T03:10:44.724Z,82.81
2023-02-24T03:13:16.389Z,82.98
2023-02-24T03:15:45.837Z,82.13
2023-02-24T03:18:19.387Z,82.20
2023-02-24T03:20:55.193Z,82.47
2023-02-24T03:23:26.222Z,80.70
2023-02-24T03:25:59.693Z,80.47
2023-02-24T03:28:35.762Z,80.94
2023-02-24T03:31:12.607Z,80.75
2023-02-24T03:33:47.420Z,81.47
2023-02-24T03:36:27.906Z,82.20
2023-02-24T03:38:58.159Z,83.75
2023-02-24T03:41:30.403Z,84.61
2023-02-24T03:44:00.146Z,84.82
2023-02-24T03:46:29.857Z,85.44
2023-02-24T03:49:05.551Z,85.96
2023-02-24T03:51:36.603Z,86.56
2023-02-24T03:54:14.425Z,86.55
2023-02-24T03:57:00.198Z,86.33
2023-02-24T03:59:40.073Z,87.06
2023-02-24T04:02:21.549Z,86.91
2023-02-24T04:04:53.880Z,87.55
2023-02-24T04:07:32.885Z,88.13
2023-02-24T04:10:09.890Z,87.67
2023-02-24T04:12:43.219Z,86.63
2023-02-24T04:15:17.214Z,86.74
2023-02-24T04:17:48.138Z,87.80
2023-02-24T04:20:20.440Z,87.46
2023-02-24T04:22:51.764Z,86.88
2023-02-24T04:25:24.816Z,86.37
2023-02-24T04:27:55.265Z,86.02
2023-02-24T04:30:34.484Z,86.13
2023-02-24T04:33:03.895Z,86.75
2023-02-24T04:35:45.248Z,86.59
2023-02-24T04:38:17.418Z,86.59
2023-02-24T04:40:47.922Z,85.58
2023-02-24T04:43:15.639Z,85.52
2023-02-24T04:45:44.277Z,86.37
2023-02-24T04:48:15.008Z,86.39
2023-02-24T04:50:44.769Z,85.28
2023-02-24T04:53:16.292Z,85.44
2023-02-24T04:55:48.629Z,85.10
2023-02-24T04:58:22.424Z,85.29
2023-02-24T05:00:52.602Z,84.27
2023-02-24T05:03:22.351Z,84.74
2023-02-24T05:05:54.910Z,85.02
2023-02-24T05:08:24.780Z,84.90
2023-02-24T05:10:53.641Z,84.09
2023-02-24T05:13:26.253Z,84.06
2023-02-24T05:15:55.178Z,84.75
2023-02-24T05:18:23.804Z,84.44
2023-02-24T05:21:11.436Z,84.04
2023-02-24T05:23:44.319Z,84.70
2023-02-24T05:26:16.859Z,84.48
2023-02-24T05:28:49.034Z,85.18
2023-02-24T05:31:19.610Z,85.59
2023-02-24T05:33:54.802Z,85.65
2023-02-24T05:36:24.072Z,85.07
2023-02-24T05:38:57.813Z,84.27
2023-02-24T05:41:32.449Z,82.93
2023-02-24T05:44:13.470Z,83.06
2023-02-24T05:46:44.495Z,83.78
2023-02-24T05:49:15.060Z,83.91
2023-02-24T05:51:54.902Z,83.81
2023-02-24T05:54:29.295Z,83.73
2023-02-24T05:57:00.098Z,83.64
2023-02-24T05:59:32.669Z,83.86
2023-02-24T06:02:06.935Z,83.94
2023-02-24T06:04:46.012Z,82.97
2023-02-24T06:07:18.919Z,82.67
2023-02-24T06:09:50.636Z,82.46
2023-02-24T06:15:35.686Z,82.88
2023-02-24T06:21:12.476Z,83.56
2023-02-24T06:26:24.069Z,84.31
2023-02-24T06:28:54.729Z,84.87
2023-02-24T06:31:22.850Z,84.93
2023-02-24T06:33:55.468Z,85.79
2023-02-24T06:36:24.595Z,85.37
2023-02-24T06:38:52.786Z,86.50
2023-02-24T06:41:20.749Z,86.30
2023-02-24T06:43:48.865Z,85.06
2023-02-24T06:46:17.684Z,85.66
2023-02-24T06:48:48.129Z,85.69
2023-02-24T06:51:17.192Z,86.21
2023-02-24T06:53:46.393Z,87.24
2023-02-24T06:56:19.989Z,86.93
2023-02-24T06:58:50.631Z,86.39
2023-02-24T07:01:20.651Z,85.32
2023-02-24T07:04:03.347Z,85.94
2023-02-24T07:06:34.159Z,85.59
2023-02-24T07:09:07.204Z,84.83
2023-02-24T07:11:36.445Z,85.16
2023-02-24T07:14:05.817Z,84.99
2023-02-24T07:16:34.821Z,84.55
2023-02-24T07:19:09.572Z,85.00
2023-02-24T07:21:39.964Z,84.45
2023-02-24T07:24:13.349Z,84.20
2023-02-24T07:26:43.850Z,83.55
2023-02-24T07:29:15.002Z,84.55
2023-02-24T07:31:43.212Z,85.23
2023-02-24T07:34:15.031Z,85.66
2023-02-24T07:36:49.174Z,84.37
2023-02-24T07:39:24.187Z,83.52
2023-02-24T07:41:53.038Z,82.17
2023-02-24T07:44:21.837Z,81.15
2023-02-24T07:46:51.029Z,80.70
2023-02-24T07:49:21.283Z,80.25
2023-02-24T07:51:52.711Z,77.82
2023-02-24T07:54:23.235Z,77.74
2023-02-24T07:56:57.657Z,78.34
2023-02-24T07:59:27.390Z,77.01
2023-02-24T08:01:56.931Z,75.93
2023-02-24T08:04:27.358Z,74.78
2023-02-24T08:06:59.039Z,73.23
2023-02-24T08:09:47.230Z,73.09
2023-02-24T08:12:18.088Z,73.07
2023-02-24T08:14:50.749Z,72.27
2023-02-24T08:17:20.817Z,72.27
2023-02-24T08:19:56.903Z,71.40
2023-02-24T08:22:27.418Z,70.94
2023-02-24T08:25:02.938Z,70.89
2023-02-24T08:27:31.253Z,69.88
2023-02-24T08:30:01.671Z,71.03
2023-02-24T08:32:33.777Z,70.19
2023-02-24T08:35:04.669Z,70.25
2023-02-24T08:37:40.617Z,69.30
2023-02-24T08:40:33.358Z,68.40
2023-02-24T08:43:16.039Z,68.00
2023-02-24T08:45:45.399Z,67.18
2023-02-24T08:48:26.219Z,66.54
2023-02-24T08:50:55.842Z,65.29
2023-02-24T08:53:29.647Z,65.88
2023-02-24T08:56:01.031Z,65.58
2023-02-24T08:58:31.179Z,65.97
2023-02-24T09:01:03.789Z,66.26
2023-02-24T09:03:35.093Z,66.85
2023-02-24T09:06:06.597Z,66.81
2023-02-24T09:08:39.995Z,65.51
2023-02-24T09:11:13.802Z,65.35
2023-02-24T09:13:51.874Z,65.96
2023-02-24T09:16:20.730Z,66.40
2023-02-24T09:19:08.543Z,65.07
2023-02-24T09:21:53.901Z,65.25
2023-02-24T09:24:27.112Z,65.01
2023-02-24T09:26:59.065Z,62.53
2023-02-24T09:29:49.084Z,62.11
2023-02-24T09:32:18.065Z,62.03
2023-02-24T09:34:46.115Z,61.42
2023-02-24T09:37:25.984Z,60.60
2023-02-24T09:43:11.037Z,60.25
2023-02-24T09:45:40.979Z,59.14
2023-02-24T09:48:21.713Z,59.39
2023-02-24T09:51:04.603Z,59.38
2023-02-24T09:53:41.729Z,59.83
2023-02-24T09:56:21.925Z,59.12
2023-02-24T09:58:59.330Z,58.80
2023-02-24T10:01:42.808Z,58.77
2023-02-24T10:07:39.968Z,59.49
2023-02-24T10:10:27.915Z,59.58
2023-02-24T10:13:02.480Z,60.80
2023-02-24T10:16:06.876Z,60.85
2023-02-24T10:18:43.934Z,62.54
2023-02-24T10:21:31.448Z,61.34
2023-02-24T10:24:11.406Z,59.03
2023-02-24T10:26:59.502Z,59.06
2023-02-24T10:29:44.177Z,59.12
2023-02-24T10:32:34.233Z,57.41
2023-02-24T10:35:04.914Z,55.87
2023-02-24T10:37:40.363Z,55.01
2023-02-24T10:40:13.623Z,55.58
2023-02-24T10:42:47.976Z,54.77
2023-02-24T10:45:26.824Z,55.61
2023-02-24T10:48:41.307Z,55.36
2023-02-24T10:51:19.680Z,55.14
2023-02-24T10:54:09.627Z,54.92
2023-02-24T10:56:49.040Z,54.15
2023-02-24T10:59:48.328Z,54.44
2023-02-24T11:02:33.707Z,54.06
2023-02-24T11:05:27.041Z,54.02
2023-02-24T11:08:15.862Z,53.40
2023-02-24T11:11:00.966Z,53.18
2023-02-24T11:13:48.823Z,52.75
2023-02-24T11:16:46.761Z,51.59
2023-02-24T11:19:14.584Z,51.45
2023-02-24T11:21:42.889Z,50.98
2023-02-24T11:24:19.828Z,51.57
2023-02-24T11:26:50.350Z,51.48
2023-02-24T11:29:43.103Z,51.77
2023-02-24T11:32:30.498Z,52.03
2023-02-24T11:35:11.712Z,51.72
2023-02-24T11:37:43.660Z,52.16
2023-02-24T11:40:18.416Z,51.81
2023-02-24T11:42:52.989Z,52.01
2023-02-24T11:45:31.514Z,52.53
2023-02-24T11:48:03.829Z,52.64
2023-02-24T11:50:43.745Z,52.19
2023-02-24T11:53:24.523Z,52.07
2023-02-24T11:55:59.245Z,53.28
2023-02-24T11:58:36.266Z,52.22
2023-02-24T12:01:13.885Z,51.64
2023-02-24T12:03:54.840Z,51.55
2023-02-24T12:06:30.670Z,51.66
2023-02-24T12:09:09.494Z,50.97
2023-02-24T12:11:47.333Z,51.27
2023-02-24T12:14:23.405Z,51.44
2023-02-24T12:17:01.101Z,51.69
2023-02-24T12:19:36.887Z,51.18
2023-02-24T12:22:11.447Z,51.84
2023-02-24T12:24:45.439Z,51.27
2023-02-24T12:27:25.315Z,51.24
2023-02-24T12:30:22.749Z,51.04
2023-02-24T12:33:02.152Z,51.79
2023-02-24T12:35:40.428Z,53.11
2023-02-24T12:38:24.524Z,52.85
2023-02-24T12:40:58.280Z,53.29
2023-02-24T12:43:33.552Z,53.92
2023-02-24T12:46:07.095Z,53.58
2023-02-24T12:49:09.238Z,53.83
2023-02-24T12:51:46.950Z,54.40
2023-02-24T12:54:22.279Z,54.04
2023-02-24T12:56:58.345Z,54.02
2023-02-24T12:59:30.898Z,54.36
2023-02-24T13:02:02.835Z,54.31
2023-02-24T13:04:43.796Z,54.55
2023-02-24T13:07:28.772Z,55.27
2023-02-24T13:10:18.984Z,55.30
2023-02-24T13:12:54.890Z,55.87
2023-02-24T13:15:25.255Z,55.34
2023-02-24T13:17:57.970Z,55.27
2023-02-24T13:20:30.740Z,56.28
2023-02-24T13:22:59.955Z,56.81
2023-02-24T13:25:33.936Z,56.42
2023-02-24T13:28:03.897Z,56.18
2023-02-24T13:30:41.283Z,55.65
2023-02-24T13:33:24.485Z,55.98
2023-02-24T13:36:07.745Z,56.03
2023-02-24T13:38:38.794Z,56.72
2023-02-24T13:41:38.607Z,56.88
2023-02-24T13:44:30.384Z,56.61
2023-02-24T13:47:21.345Z,56.18
2023-02-24T13:50:01.865Z,56.69
2023-02-24T13:52:45.535Z,57.14
2023-02-24T13:55:29.301Z,57.67
2023-02-24T13:58:20.105Z,57.46
2023-02-24T14:01:02.055Z,57.85
2023-02-24T14:03:30.789Z,57.69
2023-02-24T14:06:01.368Z,57.86
2023-02-24T14:08:39.938Z,58.02
2023-02-24T14:11:13.010Z,57.49
2023-02-24T14:13:40.863Z,58.47
2023-02-24T14:16:12.501Z,58.73
2023-02-24T14:18:41.941Z,58.99
2023-02-24T14:21:21.384Z,59.50
2023-02-24T14:23:57.926Z,59.41
2023-02-24T14:26:26.414Z,59.87
2023-02-24T14:28:58.078Z,60.54
2023-02-24T14:31:27.815Z,60.85
2023-02-24T14:33:59.665Z,60.73
2023-02-24T14:36:30.215Z,61.55
2023-02-24T14:39:08.810Z,61.43
2023-02-24T14:41:37.870Z,61.39
2023-02-24T14:44:17.946Z,61.83
2023-02-24T14:46:50.885Z,61.25
2023-02-24T14:49:21.992Z,62.02
2023-02-24T14:51:54.885Z,62.23
2023-02-24T14:54:37.224Z,62.41
2023-02-24T14:57:06.179Z,62.61
2023-02-24T14:59:36.788Z,62.22
2023-02-24T15:02:14.966Z,62.45
2023-02-24T15:04:44.573Z,62.63
2023-02-24T15:07:18.332Z,62.68
2023-02-24T15:09:49.367Z,62.72
2023-02-24T15:12:24.141Z,62.80
2023-02-24T15:14:57.276Z,63.20
2023-02-24T15:17:35.814Z,63.36
2023-02-24T15:20:05.162Z,63.34
2023-02-24T15:22:39.190Z,63.51
2023-02-24T15:25:19.726Z,63.49
2023-02-24T15:27:53.760Z,63.12
2023-02-24T15:30:33.828Z,63.59
2023-02-24T15:33:11.137Z,63.55
2023-02-24T15:35:49.968Z,62.80
2023-02-24T15:38:25.302Z,63.13
2023-02-24T15:40:57.203Z,63.45
2023-02-24T15:43:34.796Z,63.70
2023-02-24T15:46:13.785Z,62.96
2023-02-24T15:48:43.728Z,63.35
2023-02-24T15:51:21.584Z,63.81
2023-02-24T15:53:49.313Z,63.55
2023-02-24T15:56:19.932Z,63.07
2023-02-24T15:58:47.712Z,62.83
2023-02-24T16:01:16.143Z,63.36
2023-02-24T16:03:44.120Z,63.13
2023-02-24T16:06:19.717Z,62.93
2023-02-24T16:08:52.538Z,62.55
2023-02-24T16:11:25.776Z,62.72
2023-02-24T16:13:55.737Z,62.63
2023-02-24T16:16:25.742Z,62.63
2023-02-24T16:18:53.822Z,62.47
2023-02-24T16:21:28.998Z,61.57
2023-02-24T16:23:57.161Z,60.91
2023-02-24T16:26:26.054Z,60.93
2023-02-24T16:28:56.739Z,61.30
2023-02-24T16:31:25.662Z,61.89
2023-02-24T16:33:55.954Z,63.40
2023-02-24T16:36:27.281Z,64.56
2023-02-24T16:38:55.215Z,66.44
2023-02-24T16:41:23.600Z,67.69
2023-02-24T16:43:52.575Z,68.84
2023-02-24T16:46:22.683Z,69.92
2023-02-24T16:48:56.843Z,71.44
2023-02-24T16:51:24.494Z,71.69
2023-02-24T16:53:52.623Z,73.21
2023-02-24T16:56:20.677Z,73.90
2023-02-24T16:58:48.639Z,74.63
2023-02-24T17:01:21.832Z,74.82
2023-02-24T17:03:52.054Z,75.47
2023-02-24T17:06:22.531Z,76.35
2023-02-24T17:08:52.974Z,76.56
2023-02-24T17:11:24.641Z,77.19
2023-02-24T17:13:52.285Z,78.24
2023-02-24T17:16:21.865Z,77.97
2023-02-24T17:18:49.683Z,77.72
2023-02-24T17:21:17.958Z,78.70
2023-02-24T17:23:45.819Z,78.82
2023-02-24T17:26:18.221Z,78.25
2023-02-24T17:28:46.303Z,79.37
2023-02-24T17:31:15.083Z,79.70
2023-02-24T17:33:46.795Z,80.08
2023-02-24T17:36:14.824Z,81.12
2023-02-24T17:38:42.547Z,80.74
2023-02-24T17:41:10.785Z,81.27
2023-02-24T17:43:38.419Z,81.00
2023-02-24T17:46:07.393Z,80.88
2023-02-24T17:48:35.402Z,81.67
2023-02-24T17:51:04.565Z,80.75
2023-02-24T17:53:32.210Z,80.52
2023-02-24T17:56:04.087Z,80.10
2023-02-24T17:58:32.244Z,80.55
2023-02-24T18:01:02.034Z,81.26
2023-02-24T18:03:29.915Z,81.09
2023-02-24T18:06:01.784Z,80.17
2023-02-24T18:08:31.309Z,80.65
2023-02-24T18:11:00.102Z,80.93
2023-02-24T18:13:29.323Z,81.62
2023-02-24T18:15:57.362Z,81.89
2023-02-24T18:18:25.228Z,82.67
2023-02-24T18:20:58.461Z,81.93
2023-02-24T18:23:26.147Z,81.98
2023-02-24T18:25:55.343Z,82.38
2023-02-24T18:28:22.971Z,82.72
2023-02-24T18:30:50.633Z,82.76
2023-02-24T18:33:18.607Z,83.03
2023-02-24T18:35:46.361Z,82.98
2023-02-24T18:38:13.923Z,82.72
2023-02-24T18:40:41.672Z,82.27
2023-02-24T18:43:10.586Z,82.23
2023-02-24T18:45:38.148Z,82.52
2023-02-24T18:48:06.713Z,82.82
2023-02-24T18:50:36.948Z,82.60
2023-02-24T18:53:04.552Z,83.03
2023-02-24T18:55:32.143Z,82.81
2023-02-24T18:57:59.804Z,83.65
2023-02-24T19:00:28.859Z,83.22
2023-02-24T19:02:59.047Z,83.52
2023-02-24T19:05:37.954Z,83.14
2023-02-24T19:08:09.350Z,83.16
2023-02-24T19:10:39.192Z,82.68
2023-02-24T19:13:07.026Z,83.26
2023-02-24T19:15:37.333Z,83.34
2023-02-24T19:18:05.474Z,82.99
2023-02-24T19:20:33.216Z,83.05
2023-02-24T19:23:01.458Z,83.41
2023-02-24T19:25:29.558Z,83.58
2023-02-24T19:27:57.101Z,84.20
2023-02-24T19:30:24.657Z,84.13
2023-02-24T19:32:54.697Z,83.44
2023-02-24T19:35:24.850Z,84.13
2023-02-24T19:37:53.947Z,84.01
2023-02-24T19:40:25.321Z,83.90
2023-02-24T19:42:53.112Z,84.58
2023-02-24T19:45:20.692Z,84.05
2023-02-24T19:47:48.318Z,83.53
2023-02-24T19:50:22.392Z,82.68
2023-02-24T19:52:50.313Z,82.63
2023-02-24T19:55:18.130Z,82.82
2023-02-24T19:57:46.055Z,83.04
2023-02-24T20:00:18.861Z,83.55
2023-02-24T20:02:46.475Z,82.94
2023-02-24T20:05:15.013Z,83.04
2023-02-24T20:07:44.351Z,82.26
2023-02-24T20:10:12.712Z,82.27
2023-02-24T20:12:40.689Z,82.37
2023-02-24T20:15:09.606Z,83.39
2023-02-24T20:17:38.288Z,84.06
2023-02-24T20:20:08.288Z,83.96
2023-02-24T20:22:38.009Z,83.95
2023-02-24T20:25:08.449Z,84.70
2023-02-24T20:27:36.486Z,84.30
2023-02-24T20:30:04.145Z,84.71
2023-02-24T20:32:31.973Z,84.87
2023-02-24T20:34:59.727Z,84.41
2023-02-24T20:37:27.342Z,84.23
2023-02-24T20:39:54.959Z,83.33
2023-02-24T20:42:23.890Z,82.43
2023-02-24T20:44:51.516Z,82.99
2023-02-24T20:47:19.295Z,82.46
2023-02-24T20:49:46.931Z,82.18
2023-02-24T20:52:14.517Z,82.13
2023-02-24T20:54:43.281Z,81.85
2023-02-24T20:57:15.113Z,81.43
2023-02-24T21:00:01.490Z,81.93
2023-02-24T21:02:33.028Z,81.61
2023-02-24T21:05:00.934Z,81.71
2023-02-24T21:07:31.274Z,81.44
2023-02-24T21:09:59.457Z,80.83
2023-02-24T21:12:27.838Z,80.63
2023-02-24T21:14:56.851Z,80.40
2023-02-24T21:17:40.520Z,80.03
2023-02-24T21:20:11.802Z,79.48
2023-02-24T21:22:44.594Z,79.97
2023-02-24T21:25:12.424Z,80.13
2023-02-24T21:27:42.279Z,80.43
2023-02-24T21:30:26.953Z,79.74
2023-02-24T21:33:03.297Z,80.38
2023-02-24T21:35:33.415Z,80.43
2023-02-24T21:38:00.990Z,80.33
2023-02-24T21:40:28.496Z,80.49
2023-02-24T21:42:56.083Z,81.08
2023-02-24T21:45:25.098Z,81.18
2023-02-24T21:47:52.727Z,81.51
2023-02-24T21:50:21.641Z,81.18
2023-02-24T21:52:50.539Z,80.83
2023-02-24T21:55:19.176Z,80.64
2023-02-24T21:57:48.177Z,81.09
2023-02-24T22:00:20.768Z,80.97
2023-02-24T22:02:54.855Z,81.30
2023-02-24T22:05:24.931Z,81.85
2023-02-24T22:07:53.842Z,82.39
2023-02-24T22:10:23.661Z,84.93
2023-02-24T22:12:52.862Z,83.86
2023-02-24T22:15:23.441Z,83.73
2023-02-24T22:17:53.719Z,84.54
2023-02-24T22:20:21.322Z,84.52
2023-02-24T22:22:51.954Z,84.95
2023-02-24T22:25:19.662Z,85.29
2023-02-24T22:27:47.413Z,85.41
2023-02-24T22:30:15.294Z,86.37
2023-02-24T22:32:42.941Z,86.61
2023-02-24T22:35:11.996Z,85.09
2023-02-24T22:37:40.003Z,85.28
2023-02-24T22:40:08.662Z,84.99
2023-02-24T22:42:36.346Z,84.77
2023-02-24T22:45:04.293Z,84.55
2023-02-24T22:47:32.189Z,83.95
2023-02-24T22:49:59.802Z,83.40
2023-02-24T22:52:29.040Z,82.13
2023-02-24T22:54:56.643Z,80.40
2023-02-24T22:57:24.212Z,79.90
2023-02-24T22:59:51.760Z,78.50
2023-02-24T23:02:19.598Z,77.96
2023-02-24T23:04:47.117Z,77.57
2023-02-24T23:07:14.741Z,76.65
2023-02-24T23:09:52.662Z,76.19
2023-02-24T23:12:22.162Z,76.66
2023-02-24T23:14:49.860Z,76.56
2023-02-24T23:17:17.473Z,76.93
2023-02-24T23:19:45.069Z,77.63
2023-02-24T23:22:12.629Z,78.40
2023-02-24T23:24:40.655Z,79.47
2023-02-24T23:27:09.831Z,80.08
2023-02-24T23:29:37.469Z,80.58
2023-02-24T23:32:05.628Z,81.34
2023-02-24T23:34:33.500Z,81.46
2023-02-24T23:37:03.166Z,82.40
2023-02-24T23:39:30.880Z,81.99
2023-02-24T23:41:58.418Z,81.52
2023-02-24T23:44:28.711Z,81.00
2023-02-24T23:47:01.960Z,80.00
2023-02-24T23:49:46.200Z,79.37
2023-02-24T23:52:15.582Z,78.88
2023-02-24T23:54:43.478Z,78.48
2023-02-24T23:57:13.011Z,77.99
2023-02-24T23:59:45.017Z,77.22
